Time;durP1;ratioP1;P1;durP2;ratioP2;P2;SDS_P1;SDS_P2;PMS_P1;PMS_P2;Temp;Humidity;BMP_temperature;BMP_pressure;BME280_temperature;BME280_humidity;BME280_pressure;Samples;Min_cycle;Max_cycle;Signal;HPM_P1;HPM_P2
2022/11/03 00:02:23;;;;;;;17.70;9.53;;;;;;;5.27;100.00;101667.06;4860788;29;20090;-74
2022/11/03 00:04:49;;;;;;;22.53;10.70;;;;;;;5.34;100.00;101678.03;4860646;29;20044;-75
2022/11/03 00:07:20;;;;;;;21.70;9.30;;;;;;;5.38;100.00;101676.00;4845465;29;20054;-75
2022/11/03 00:09:46;;;;;;;15.47;8.93;;;;;;;5.34;100.00;101661.34;4861307;29;20038;-75
2022/11/03 00:12:12;;;;;;;18.17;8.73;;;;;;;5.42;100.00;101675.69;4861268;29;20053;-75
2022/11/03 00:14:38;;;;;;;17.23;9.73;;;;;;;5.41;100.00;101667.88;4868969;29;20041;-74
2022/11/03 00:17:04;;;;;;;18.07;9.10;;;;;;;5.39;100.00;101675.06;4858693;29;20049;-73
2022/11/03 00:19:29;;;;;;;18.27;9.43;;;;;;;5.46;100.00;101677.16;4874308;29;20037;-74
2022/11/03 00:21:57;;;;;;;17.53;8.17;;;;;;;5.46;100.00;101673.69;4872718;29;20078;-74
2022/11/03 00:24:22;;;;;;;14.40;9.50;;;;;;;5.47;100.00;101678.00;4872610;29;20090;-75
2022/11/03 00:26:48;;;;;;;21.20;8.83;;;;;;;5.48;100.00;101671.78;4861943;29;20474;-75
2022/11/03 00:29:14;;;;;;;12.80;7.83;;;;;;;5.49;100.00;101676.97;4860803;29;20030;-77
2022/11/03 00:31:41;;;;;;;20.03;9.60;;;;;;;5.48;100.00;101677.06;4861178;29;20428;-75
2022/11/03 00:34:08;;;;;;;14.87;8.80;;;;;;;5.45;100.00;101674.63;4860813;29;20075;-74
2022/11/03 00:36:36;;;;;;;17.57;8.30;;;;;;;5.40;100.00;101677.59;4859918;29;20037;-74
2022/11/03 00:39:02;;;;;;;15.35;8.25;;;;;;;5.35;100.00;101674.44;4860497;29;20052;-78
2022/11/03 00:41:28;;;;;;;15.60;8.37;;;;;;;5.28;100.00;101678.47;4860357;29;20048;-75
2022/11/03 00:43:54;;;;;;;13.80;7.73;;;;;;;5.25;100.00;101663.66;4860250;29;20120;-75
2022/11/03 00:46:21;;;;;;;16.60;7.73;;;;;;;5.32;100.00;101673.81;4860576;29;20045;-75
2022/11/03 00:48:47;;;;;;;12.70;7.20;;;;;;;5.34;100.00;101677.19;4860311;29;20044;-74
2022/11/03 00:51:14;;;;;;;12.07;7.40;;;;;;;5.35;100.00;101673.59;4844314;29;20034;-75
2022/11/03 00:53:45;;;;;;;13.70;8.27;;;;;;;5.28;100.00;101674.03;4860515;29;20070;-76
2022/11/03 00:56:17;;;;;;;12.50;6.93;;;;;;;5.26;100.00;101678.56;4860829;29;20530;-75
2022/11/03 00:58:43;;;;;;;13.33;7.13;;;;;;;5.28;100.00;101667.91;4860639;29;20045;-77
2022/11/03 01:01:13;;;;;;;10.30;6.73;;;;;;;5.32;100.00;101668.53;4844205;29;20030;-76
2022/11/03 01:03:40;;;;;;;9.63;7.10;;;;;;;5.40;100.00;101676.75;4860713;29;20033;-77
2022/11/03 01:08:52;;;;;;;11.50;8.57;;;;;;;5.38;100.00;101682.13;4860457;29;20174;-74
2022/11/03 01:14:10;;;;;;;12.83;9.07;;;;;;;5.21;100.00;101685.13;4860285;29;20041;-77
2022/11/03 01:16:35;;;;;;;13.50;8.23;;;;;;;5.07;100.00;101682.56;4859888;29;20086;-78
2022/11/03 01:19:01;;;;;;;13.93;8.20;;;;;;;5.05;100.00;101674.75;4859757;29;20474;-75
2022/11/03 01:21:28;;;;;;;12.60;9.10;;;;;;;5.05;100.00;101682.66;4859669;29;20029;-74
2022/11/03 01:23:53;;;;;;;11.40;7.33;;;;;;;5.04;100.00;101688.91;4859653;29;20150;-75
2022/11/03 01:26:19;;;;;;;12.73;8.20;;;;;;;5.05;100.00;101679.19;4859741;29;20165;-75
2022/11/03 01:28:46;;;;;;;11.57;7.50;;;;;;;5.00;100.00;101678.66;4859899;29;20120;-76
2022/11/03 01:31:15;;;;;;;10.57;6.60;;;;;;;4.98;100.00;101679.59;4843082;29;20053;-74
2022/11/03 01:33:42;;;;;;;9.63;7.03;;;;;;;5.03;100.00;101681.94;4860149;29;20104;-75
2022/11/03 01:36:08;;;;;;;11.90;8.30;;;;;;;5.03;100.00;101667.88;4860210;29;20030;-74
2022/11/03 01:38:35;;;;;;;11.33;7.20;;;;;;;5.15;100.00;101683.72;4860016;29;20049;-75
2022/11/03 01:41:03;;;;;;;11.97;7.73;;;;;;;5.14;100.00;101687.31;4859915;29;20412;-75
2022/11/03 01:43:31;;;;;;;10.27;7.15;;;;;;;5.16;100.00;101684.56;4859411;29;20033;-75
2022/11/03 01:46:26;;;;;;;9.53;6.63;;;;;;;5.16;100.00;101680.13;4860499;29;20037;-75
2022/11/03 01:49:05;;;;;;;9.03;5.90;;;;;;;5.14;100.00;101683.84;4859496;29;20041;-75
2022/11/03 01:51:32;;;;;;;8.93;6.53;;;;;;;5.14;100.00;101691.75;4859519;29;20105;-75
2022/11/03 01:54:00;;;;;;;9.43;6.20;;;;;;;5.12;100.00;101683.94;4858577;29;20037;-74
2022/11/03 01:56:31;;;;;;;7.93;5.15;;;;;;;5.22;100.00;101689.44;4862926;29;20177;-74
2022/11/03 01:58:57;;;;;;;9.30;6.37;;;;;;;5.08;100.00;101665.78;4870290;29;20042;-75
2022/11/03 02:01:23;;;;;;;10.20;7.70;;;;;;;5.05;100.00;101671.28;4875168;29;20081;-75
2022/11/03 02:04:00;;;;;;;8.57;6.27;;;;;;;5.15;100.00;101678.44;4873530;29;20037;-75
2022/11/03 02:06:28;;;;;;;9.43;6.13;;;;;;;5.14;100.00;101681.19;4865100;29;20029;-75
2022/11/03 02:09:08;;;;;;;7.18;5.35;;;;;;;5.11;100.00;101687.53;4846711;29;20363;-76
2022/11/03 02:14:20;;;;;;;8.10;5.03;;;;;;;5.16;100.00;101685.41;4861954;29;20302;-74
2022/11/03 02:16:52;;;;;;;7.67;5.80;;;;;;;5.21;100.00;101688.59;4845887;29;20025;-73
2022/11/03 02:19:38;;;;;;;9.57;6.43;;;;;;;5.18;100.00;101683.50;4862303;29;20569;-74
2022/11/03 02:22:37;;;;;;;8.43;6.80;;;;;;;5.18;100.00;101686.16;4862209;29;20317;-74
2022/11/03 02:25:28;;;;;;;9.43;7.13;;;;;;;5.15;100.00;101686.38;4860961;29;20121;-74
2022/11/03 02:27:53;;;;;;;9.63;6.70;;;;;;;5.15;100.00;101688.16;4862145;29;20151;-76
2022/11/03 02:30:19;;;;;;;10.17;7.57;;;;;;;5.12;100.00;101680.44;4845447;29;20059;-74
2022/11/03 02:32:56;;;;;;;11.20;7.90;;;;;;;5.13;100.00;101684.78;4861864;29;20041;-76
2022/11/03 02:35:36;;;;;;;9.47;7.30;;;;;;;5.14;100.00;101683.84;4861778;29;20037;-75
2022/11/03 02:38:04;;;;;;;9.77;7.07;;;;;;;5.20;100.00;101681.63;4862299;29;20040;-76
2022/11/03 02:40:35;;;;;;;9.45;6.95;;;;;;;5.25;100.00;101683.97;4862240;29;20029;-76
2022/11/03 02:43:02;;;;;;;10.83;8.03;;;;;;;5.27;100.00;101688.19;4862216;29;20026;-75
2022/11/03 02:45:29;;;;;;;11.43;7.10;;;;;;;5.19;100.00;101679.91;4862695;29;20033;-76
2022/11/03 02:47:58;;;;;;;9.43;7.67;;;;;;;4.98;100.00;101650.56;4862683;29;20033;-74
2022/11/03 02:50:28;;;;;;;9.90;7.70;;;;;;;5.23;100.00;101686.72;4862575;29;20094;-75
2022/11/03 02:52:54;;;;;;;9.40;7.27;;;;;;;5.14;100.00;101681.19;4862494;29;20412;-75
2022/11/03 02:55:38;;;;;;;10.63;7.60;;;;;;;5.12;100.00;101686.56;4862319;29;20262;-76
2022/11/03 02:58:20;;;;;;;10.57;7.93;;;;;;;5.13;100.00;101690.91;4862079;29;20033;-76
2022/11/03 03:01:13;;;;;;;13.97;8.17;;;;;;;5.16;100.00;101690.69;4863213;29;20041;-75
2022/11/03 03:03:53;;;;;;;11.30;8.03;;;;;;;5.22;100.00;101689.44;4862076;29;20049;-74
2022/11/03 03:06:24;;;;;;;11.77;7.03;;;;;;;5.16;100.00;101680.13;4860882;29;20394;-74
2022/11/03 03:08:55;;;;;;;8.47;6.67;;;;;;;5.13;100.00;101690.06;4861603;29;20304;-77
2022/11/03 03:11:35;;;;;;;9.83;7.70;;;;;;;5.03;100.00;101689.84;4861933;29;20041;-76
2022/11/03 03:14:34;;;;;;;10.33;7.67;;;;;;;5.01;100.00;101694.41;4861760;29;20049;-73
2022/11/03 03:17:04;;;;;;;11.67;7.80;;;;;;;5.02;100.00;101695.25;4858418;29;20064;-75
2022/11/03 03:19:57;;;;;;;10.77;7.20;;;;;;;5.09;100.00;101697.34;4862096;29;20025;-75
2022/11/03 03:22:34;;;;;;;9.23;6.87;;;;;;;5.07;100.00;101696.63;4861448;29;20033;-75
2022/11/03 03:25:07;;;;;;;9.77;7.50;;;;;;;4.76;100.00;101662.69;4861449;29;20468;-75
2022/11/03 03:27:36;;;;;;;8.27;6.60;;;;;;;4.95;100.00;101708.00;4861879;29;20101;-75
2022/11/03 03:30:05;;;;;;;10.30;6.77;;;;;;;4.90;100.00;101710.94;4861317;29;20029;-74
2022/11/03 03:32:36;;;;;;;9.97;7.20;;;;;;;4.83;100.00;101706.19;4861471;29;20445;-76
2022/11/03 03:35:04;;;;;;;11.53;7.47;;;;;;;4.86;100.00;101698.06;4862540;29;20266;-77
2022/11/03 03:37:31;;;;;;;11.55;8.05;;;;;;;4.92;100.00;101702.94;4847671;29;20489;-74
2022/11/03 03:40:02;;;;;;;12.40;7.27;;;;;;;4.97;100.00;101711.41;4861594;29;20049;-76
2022/11/03 03:42:30;;;;;;;9.10;7.00;;;;;;;4.92;100.00;101693.22;4861679;29;20262;-75
2022/11/03 03:44:58;;;;;;;10.27;6.73;;;;;;;4.94;100.00;101708.97;4861675;29;20033;-75
2022/11/03 03:47:30;;;;;;;11.23;8.10;;;;;;;4.91;100.00;101709.13;4861792;29;20033;-76
2022/11/03 03:49:56;;;;;;;11.27;7.90;;;;;;;4.90;100.00;101705.66;4861607;29;20273;-76
2022/11/03 03:52:22;;;;;;;11.07;8.30;;;;;;;4.91;100.00;101709.13;4860926;29;20274;-76
2022/11/03 03:54:48;;;;;;;9.30;7.63;;;;;;;4.85;100.00;101701.63;4860895;29;20270;-77
2022/11/03 03:57:16;;;;;;;11.73;7.90;;;;;;;4.87;100.00;101705.03;4860682;29;20608;-76
2022/11/03 03:59:43;;;;;;;11.82;7.63;;;;;;;4.89;100.00;101714.53;4860711;29;20550;-77
2022/11/03 04:02:13;;;;;;;13.73;9.30;;;;;;;4.88;100.00;101706.72;4844546;29;20581;-77
2022/11/03 04:04:39;;;;;;;11.03;8.10;;;;;;;4.88;100.00;101709.34;4843916;29;20454;-77
2022/11/03 04:09:53;;;;;;;13.25;8.88;;;;;;;4.82;100.00;101701.84;4845574;29;20113;-75
2022/11/03 04:23:17;;;;;;;11.30;7.73;;;;;;;4.82;100.00;101707.13;4861751;29;20274;-76
2022/11/03 04:25:52;;;;;;;16.17;8.40;;;;;;;4.88;100.00;101712.00;4860389;29;20033;-77
2022/11/03 04:28:17;;;;;;;16.10;9.90;;;;;;;4.80;100.00;101704.59;4843547;29;20373;-77
2022/11/03 04:30:43;;;;;;;11.50;9.00;;;;;;;4.81;100.00;101706.28;4843924;29;20038;-75
2022/11/03 04:33:19;;;;;;;13.90;8.87;;;;;;;4.84;100.00;101715.78;4860344;29;20040;-76
2022/11/03 04:35:47;;;;;;;13.23;10.50;;;;;;;4.81;100.00;101705.44;4860373;29;20025;-76
2022/11/03 04:38:12;;;;;;;14.83;9.07;;;;;;;4.85;100.00;101697.22;4859759;29;20266;-74
2022/11/03 04:40:57;;;;;;;14.47;8.80;;;;;;;4.86;100.00;101698.06;4860315;29;20317;-76
2022/11/03 04:43:32;;;;;;;14.00;9.67;;;;;;;4.80;100.00;101694.03;4861073;29;20037;-75
2022/11/03 04:45:57;;;;;;;16.00;9.90;;;;;;;4.68;100.00;101699.31;4859639;29;20277;-75
2022/11/03 04:48:24;;;;;;;15.93;9.70;;;;;;;4.43;100.00;101685.09;4846234;29;20475;-75
2022/11/03 04:50:54;;;;;;;13.77;10.57;;;;;;;4.54;100.00;101719.50;4866215;29;20044;-75
2022/11/03 04:53:21;;;;;;;18.00;10.73;;;;;;;4.53;100.00;101717.81;4874944;29;20358;-76
2022/11/03 04:55:50;;;;;;;17.17;10.73;;;;;;;4.57;100.00;101714.03;4843361;29;20292;-75
2022/11/03 04:58:23;;;;;;;15.57;10.23;;;;;;;4.60;100.00;101713.81;4859790;29;20116;-74
2022/11/03 05:00:51;;;;;;;15.37;9.83;;;;;;;4.62;100.00;101714.56;4859728;29;20120;-79
2022/11/03 05:03:22;;;;;;;18.75;10.40;;;;;;;4.70;100.00;101706.16;4859412;29;20282;-75
2022/11/03 05:05:48;;;;;;;15.90;9.97;;;;;;;4.76;100.00;101718.94;4859587;29;20037;-74
2022/11/03 05:08:16;;;;;;;15.63;9.97;;;;;;;4.74;100.00;101712.94;4859525;29;20288;-74
2022/11/03 05:10:41;;;;;;;15.70;9.32;;;;;;;4.73;100.00;101724.44;4859687;29;20209;-77
2022/11/03 05:13:27;;;;;;;18.30;11.17;;;;;;;4.65;100.00;101721.47;4842544;29;20061;-74
2022/11/03 05:16:00;;;;;;;15.67;10.03;;;;;;;4.60;100.00;101720.88;4858843;29;20094;-75
2022/11/03 05:18:31;;;;;;;14.50;9.47;;;;;;;4.73;100.00;101726.22;4859631;29;20349;-75
2022/11/03 05:21:02;;;;;;;13.67;10.20;;;;;;;4.80;100.00;101724.88;4859346;29;20615;-75
2022/11/03 05:23:35;;;;;;;14.63;10.40;;;;;;;4.87;100.00;101721.69;4858244;29;20270;-76
2022/11/03 05:26:01;;;;;;;18.43;11.63;;;;;;;4.84;100.00;101721.06;4859658;29;20400;-73
2022/11/03 05:28:28;;;;;;;16.00;10.13;;;;;;;4.81;100.00;101724.75;4858790;29;20262;-75
2022/11/03 05:30:54;;;;;;;16.17;11.07;;;;;;;4.79;100.00;101744.28;4862560;29;20026;-73
2022/11/03 05:33:35;;;;;;;16.50;11.23;;;;;;;4.68;100.00;101725.69;4863119;29;20290;-75
2022/11/03 05:36:18;;;;;;;16.70;10.10;;;;;;;4.73;100.00;101728.88;4863274;29;20061;-77
2022/11/03 05:38:43;;;;;;;17.80;10.73;;;;;;;4.75;100.00;101722.53;4863480;29;20058;-76
2022/11/03 05:41:29;;;;;;;14.20;9.80;;;;;;;4.83;100.00;101730.78;4863214;29;20266;-73
2022/11/03 05:44:02;;;;;;;13.23;8.80;;;;;;;4.82;100.00;101722.97;4862571;29;20102;-74
2022/11/03 05:46:36;;;;;;;15.80;10.10;;;;;;;4.89;100.00;101729.53;4846529;29;20029;-76
2022/11/03 05:49:02;;;;;;;13.27;9.53;;;;;;;4.93;100.00;101728.41;4861558;29;20053;-77
2022/11/03 05:51:43;;;;;;;14.00;9.10;;;;;;;4.64;100.00;101698.66;4862574;29;20270;-75
2022/11/03 05:54:19;;;;;;;14.83;8.80;;;;;;;4.83;100.00;101741.34;4862559;29;20061;-75
2022/11/03 05:56:46;;;;;;;15.10;9.33;;;;;;;4.92;100.00;101746.03;4862545;29;20037;-74
2022/11/03 05:59:13;;;;;;;15.47;10.37;;;;;;;5.01;100.00;101744.56;4862341;29;20274;-76
2022/11/03 06:01:39;;;;;;;14.10;9.47;;;;;;;5.12;100.00;101747.31;4862215;29;20281;-75
2022/11/03 06:04:39;;;;;;;13.03;9.17;;;;;;;5.21;100.00;101743.22;4863254;29;20037;-76
2022/11/03 06:07:17;;;;;;;19.60;12.40;;;;;;;5.04;100.00;101733.78;4844017;29;20373;-76
2022/11/03 06:09:46;;;;;;;16.10;11.02;;;;;;;5.00;100.00;101747.31;4861761;29;20029;-75
2022/11/03 06:12:17;;;;;;;15.57;11.43;;;;;;;4.89;100.00;101745.34;4862891;29;20064;-75
2022/11/03 06:14:43;;;;;;;15.87;9.83;;;;;;;4.95;100.00;101750.25;4863499;29;20037;-76
2022/11/03 06:17:27;;;;;;;16.87;10.40;;;;;;;5.07;100.00;101754.69;4863047;29;20327;-77
2022/11/03 06:19:56;;;;;;;18.67;10.40;;;;;;;5.07;100.00;101748.56;4854188;29;20128;-75
2022/11/03 06:22:26;;;;;;;15.52;9.95;;;;;;;4.96;100.00;101757.22;4863864;29;20088;-75
2022/11/03 06:25:00;;;;;;;16.03;9.93;;;;;;;4.83;100.00;101740.50;4882471;29;20037;-76
2022/11/03 06:27:33;;;;;;;13.10;8.43;;;;;;;4.96;100.00;101762.50;4865182;29;20317;-76
2022/11/03 06:30:11;;;;;;;12.20;8.20;;;;;;;5.00;100.00;101769.25;4882196;29;20345;-76
2022/11/03 06:32:37;;;;;;;11.25;8.70;;;;;;;4.98;100.00;101772.00;4881718;29;20273;-76
2022/11/03 06:35:02;;;;;;;13.77;8.63;;;;;;;5.00;100.00;101765.78;4881210;29;20029;-76
2022/11/03 06:37:33;;;;;;;11.10;7.47;;;;;;;5.07;100.00;101767.06;4881424;29;20414;-74
2022/11/03 06:40:23;;;;;;;13.43;8.23;;;;;;;5.06;100.00;101774.13;4883058;29;20653;-76
2022/11/03 06:42:48;;;;;;;10.20;6.00;;;;;;;4.99;100.00;101770.22;4882850;29;20037;-73
2022/11/03 06:45:22;;;;;;;11.25;5.95;;;;;;;4.95;100.00;101766.94;4866823;29;20427;-77
2022/11/03 06:47:49;;;;;;;9.57;5.07;;;;;;;5.00;100.00;101768.41;4881762;29;20548;-75
2022/11/03 06:50:33;;;;;;;13.87;6.37;;;;;;;5.00;100.00;101769.25;4881596;29;20264;-77
2022/11/03 06:53:02;;;;;;;10.60;6.07;;;;;;;4.98;100.00;101776.44;4881282;29;20289;-75
2022/11/03 06:55:37;;;;;;;8.23;5.93;;;;;;;4.99;100.00;101767.56;4881239;29;20056;-76
2022/11/03 06:58:35;;;;;;;8.30;5.60;;;;;;;4.99;100.00;101778.13;4862720;29;20781;-76
2022/11/03 07:01:08;;;;;;;11.00;5.20;;;;;;;4.98;100.00;101779.09;4865073;29;20458;-79
2022/11/03 07:04:17;;;;;;;8.80;6.40;;;;;;;5.03;100.00;101773.50;4881080;29;20029;-76
2022/11/03 07:06:50;;;;;;;6.57;4.43;;;;;;;4.89;100.00;101761.19;4862684;29;20353;-78
2022/11/03 07:09:20;;;;;;;7.33;5.00;;;;;;;5.07;100.00;101783.75;4863429;29;20044;-78
2022/11/03 07:12:14;;;;;;;21.50;5.27;;;;;;;4.84;100.00;101763.28;4863302;29;20316;-77
2022/11/03 07:14:48;;;;;;;9.03;5.93;;;;;;;4.88;100.00;101793.81;4862399;29;20317;-79
2022/11/03 07:18:14;;;;;;;6.70;4.80;;;;;;;4.80;100.00;101796.13;4865923;29;20432;-77
2022/11/03 07:20:39;;;;;;;7.43;5.07;;;;;;;4.65;100.00;101780.34;4863259;29;20464;-75
2022/11/03 07:23:11;;;;;;;8.07;5.67;;;;;;;4.50;100.00;101754.94;4880050;29;20069;-74
2022/11/03 07:26:00;;;;;;;8.80;6.83;;;;;;;4.44;100.00;101754.50;4862336;29;20033;-76
2022/11/03 07:28:59;;;;;;;7.83;5.23;;;;;;;4.72;100.00;101801.06;4879578;29;20595;-75
2022/11/03 07:31:25;;;;;;;7.40;5.67;;;;;;;4.66;100.00;101797.03;4862523;29;20085;-75
2022/11/03 07:34:00;;;;;;;10.10;5.87;;;;;;;4.58;100.00;101783.47;4880477;29;20647;-74
2022/11/03 07:36:31;;;;;;;8.60;7.07;;;;;;;4.65;100.00;101800.63;4880073;29;20029;-73
2022/11/03 07:39:10;;;;;;;9.70;6.40;;;;;;;4.72;100.00;101785.22;4848833;29;20308;-71
2022/11/03 07:41:59;;;;;;;10.00;6.03;;;;;;;4.87;100.00;101800.03;4890790;29;20360;-72
2022/11/03 07:44:33;;;;;;;8.57;6.17;;;;;;;4.69;100.00;101780.16;4887430;29;20752;-76
2022/11/03 07:46:59;;;;;;;10.70;7.87;;;;;;;4.87;100.00;101805.31;4879615;29;20356;-76
2022/11/03 07:49:29;;;;;;;13.77;10.13;;;;;;;4.81;100.00;101809.22;4879798;29;20036;-77
2022/11/03 07:51:58;;;;;;;14.33;9.23;;;;;;;4.72;100.00;101806.34;4881643;29;20118;-77
2022/11/03 07:54:29;;;;;;;13.10;9.70;;;;;;;4.65;100.00;101801.47;4862637;29;20296;-73
2022/11/03 07:57:00;;;;;;;13.53;7.77;;;;;;;4.62;100.00;101801.63;4879606;29;20304;-75
2022/11/03 07:59:37;;;;;;;13.83;9.00;;;;;;;4.58;100.00;101808.06;4879369;29;20029;-76
2022/11/03 08:02:25;;;;;;;14.93;10.27;;;;;;;4.56;100.00;101804.66;4879697;29;20097;-76
2022/11/03 08:04:50;;;;;;;12.98;8.77;;;;;;;4.53;100.00;101802.22;4880285;29;20040;-74
2022/11/03 08:07:17;;;;;;;14.40;9.57;;;;;;;4.59;100.00;101796.56;4879625;29;20047;-75
2022/11/03 08:09:42;;;;;;;15.13;9.47;;;;;;;4.65;100.00;101796.19;4878224;29;20276;-77
2022/11/03 08:12:08;;;;;;;11.70;8.60;;;;;;;4.68;100.00;101789.00;4879124;29;20045;-74
2022/11/03 08:14:34;;;;;;;14.20;8.97;;;;;;;4.75;100.00;101795.56;4879796;29;20041;-75
2022/11/03 08:16:59;;;;;;;16.67;10.03;;;;;;;4.72;100.00;101793.13;4877921;29;20420;-77
2022/11/03 08:19:25;;;;;;;11.77;8.07;;;;;;;4.73;100.00;101797.47;4878507;29;20025;-77
2022/11/03 08:21:50;;;;;;;13.50;8.73;;;;;;;4.71;100.00;101794.94;4879481;29;20084;-76
2022/11/03 08:24:16;;;;;;;12.27;9.20;;;;;;;4.75;100.00;101795.56;4880332;29;20040;-78
2022/11/03 08:26:41;;;;;;;11.43;8.80;;;;;;;4.83;100.00;101799.41;4879903;29;20040;-78
2022/11/03 08:29:07;;;;;;;15.50;10.70;;;;;;;4.81;100.00;101801.28;4879315;29;20471;-75
2022/11/03 08:31:32;;;;;;;16.00;10.10;;;;;;;4.85;100.00;101794.03;4878792;29;20021;-78
2022/11/03 08:33:58;;;;;;;16.43;9.93;;;;;;;4.93;100.00;101794.38;4879358;29;20037;-76
2022/11/03 08:36:23;;;;;;;13.87;9.77;;;;;;;4.93;100.00;101795.22;4880190;29;20032;-78
2022/11/03 08:38:49;;;;;;;15.50;9.07;;;;;;;4.89;100.00;101798.16;4880174;29;20381;-77
2022/11/03 08:41:15;;;;;;;17.33;9.47;;;;;;;4.94;100.00;101796.91;4879558;29;20081;-76
2022/11/03 08:43:40;;;;;;;24.50;10.23;;;;;;;5.00;99.85;101789.53;4879767;29;20382;-80
2022/11/03 08:46:06;;;;;;;32.03;9.60;;;;;;;5.00;100.00;101771.91;4879478;29;20032;-78
2022/11/03 08:48:32;;;;;;;16.13;9.97;;;;;;;5.12;98.93;101800.13;4880072;29;20454;-76
2022/11/03 08:50:57;;;;;;;14.00;8.50;;;;;;;5.08;99.26;101798.63;4879377;29;20053;-78
2022/11/03 08:53:25;;;;;;;14.30;9.97;;;;;;;5.07;99.39;101807.50;4879920;29;20028;-75
2022/11/03 08:55:52;;;;;;;15.33;10.13;;;;;;;5.11;99.41;101803.72;4880742;29;20043;-76
2022/11/03 08:58:17;;;;;;;15.80;10.20;;;;;;;5.14;99.24;101806.13;4889012;29;20050;-77
2022/11/03 09:00:43;;;;;;;13.77;8.77;;;;;;;5.10;98.64;101809.09;4888111;29;20073;-79
2022/11/03 09:03:09;;;;;;;13.67;9.83;;;;;;;5.21;99.46;101804.81;4889604;29;20040;-78
2022/11/03 09:05:35;;;;;;;14.27;9.93;;;;;;;5.31;98.60;101814.75;4881582;29;20054;-77
2022/11/03 09:08:01;;;;;;;14.80;9.57;;;;;;;5.27;97.99;101799.13;4880168;29;20045;-78
2022/11/03 09:10:26;;;;;;;15.30;10.93;;;;;;;5.31;97.86;101815.59;4865655;29;20026;-75
2022/11/03 09:12:54;;;;;;;13.70;9.17;;;;;;;5.33;98.97;101802.28;4866122;29;20049;-79
2022/11/03 09:15:20;;;;;;;15.27;10.07;;;;;;;5.55;98.22;101807.81;4864723;29;20074;-79
2022/11/03 09:17:45;;;;;;;13.93;10.40;;;;;;;5.59;97.20;101804.00;4864138;29;20099;-77
2022/11/03 09:20:11;;;;;;;14.70;9.00;;;;;;;5.50;97.04;101794.06;4863260;29;20041;-77
2022/11/03 09:22:37;;;;;;;14.87;9.43;;;;;;;5.45;97.00;101793.50;4864192;29;20034;-79
2022/11/03 09:25:06;;;;;;;12.70;9.93;;;;;;;5.38;96.35;101785.16;4863163;29;20025;-80
2022/11/03 09:27:32;;;;;;;18.77;11.83;;;;;;;5.30;97.00;101790.13;4864619;29;20062;-79
2022/11/03 09:29:57;;;;;;;19.83;12.77;;;;;;;5.28;98.47;101794.66;4869119;29;20460;-77
2022/11/03 09:32:24;;;;;;;19.90;11.87;;;;;;;5.24;98.77;101788.75;4864219;29;20032;-81
2022/11/03 09:34:49;;;;;;;20.53;12.17;;;;;;;5.22;98.41;101787.16;4864374;29;20032;-76
2022/11/03 09:37:15;;;;;;;16.50;11.73;;;;;;;5.33;98.63;101791.72;4864287;29;20041;-77
2022/11/03 09:39:41;;;;;;;18.27;11.87;;;;;;;5.50;97.87;101796.72;4864130;29;20033;-75
2022/11/03 09:42:09;;;;;;;18.97;11.60;;;;;;;5.52;96.70;101789.53;4863757;29;20037;-77
2022/11/03 09:44:35;;;;;;;17.83;11.33;;;;;;;5.47;97.18;101799.53;4863203;29;20034;-79
2022/11/03 09:47:03;;;;;;;18.53;11.70;;;;;;;5.40;97.50;101793.00;4863590;29;20143;-77
2022/11/03 09:49:31;;;;;;;23.58;11.73;;;;;;;5.29;98.34;101796.38;4847381;29;20501;-76
2022/11/03 09:52:24;;;;;;;18.03;12.20;;;;;;;5.24;97.99;101804.59;4862005;29;20490;-77
2022/11/03 09:54:54;;;;;;;19.30;11.50;;;;;;;5.03;98.21;101755.84;4863176;29;20036;-76
2022/11/03 09:57:20;;;;;;;20.00;11.70;;;;;;;5.39;98.43;101796.56;4847380;29;20515;-75
2022/11/03 09:59:48;;;;;;;20.00;11.77;;;;;;;5.53;98.15;101792.06;4865638;29;20060;-74
2022/11/03 10:02:27;;;;;;;23.40;13.27;;;;;;;5.62;97.46;101801.16;4864515;29;20512;-74
2022/11/03 10:04:56;;;;;;;18.43;12.20;;;;;;;5.57;97.32;101796.19;4863402;29;20045;-78
2022/11/03 10:07:22;;;;;;;17.23;12.23;;;;;;;5.48;97.65;101801.22;4864839;29;20121;-77
2022/11/03 10:09:55;;;;;;;19.10;12.23;;;;;;;5.38;97.64;101786.97;4862824;29;20046;-76
2022/11/03 10:12:24;;;;;;;23.07;13.03;;;;;;;5.42;97.90;101805.13;4864030;29;20191;-76
2022/11/03 10:14:53;;;;;;;17.90;12.30;;;;;;;5.42;97.99;101809.56;4867961;29;20045;-76
2022/11/03 10:17:29;;;;;;;20.58;13.90;;;;;;;5.44;98.23;101802.38;4871562;29;20434;-77
2022/11/03 10:20:07;;;;;;;17.53;11.77;;;;;;;5.43;96.74;101780.41;4869564;29;20041;-77
2022/11/03 10:22:32;;;;;;;20.57;12.50;;;;;;;5.55;97.31;101799.88;4869414;29;20038;-77
2022/11/03 10:25:34;;;;;;;15.90;10.67;;;;;;;5.63;96.86;101805.47;4862694;29;20359;-76
2022/11/03 10:28:16;;;;;;;19.80;11.77;;;;;;;5.58;97.08;101812.88;4820586;29;20489;-76
2022/11/03 10:31:15;;;;;;;17.77;11.43;;;;;;;5.50;97.33;101809.94;4863604;29;20072;-76
2022/11/03 10:33:52;;;;;;;24.00;12.57;;;;;;;5.57;97.79;101796.19;4861459;29;20090;-75
2022/11/03 10:36:17;;;;;;;19.07;11.60;;;;;;;5.64;96.11;101809.81;4862957;29;20026;-75
2022/11/03 10:38:44;;;;;;;21.90;12.70;;;;;;;5.46;96.67;101789.91;4861926;29;20378;-75
2022/11/03 10:41:16;;;;;;;22.43;12.23;;;;;;;5.52;96.44;101810.66;4862074;29;20044;-77
2022/11/03 10:43:44;;;;;;;26.30;11.10;;;;;;;5.46;96.03;101813.69;4861887;29;20503;-76
2022/11/03 10:46:21;;;;;;;21.67;11.40;;;;;;;5.33;96.47;101807.56;4862485;29;20037;-74
2022/11/03 10:49:04;;;;;;;18.47;10.93;;;;;;;5.33;96.82;101808.41;4862276;29;20060;-74
2022/11/03 10:51:36;;;;;;;17.20;10.50;;;;;;;5.40;97.31;101808.84;4862066;29;20398;-76
2022/11/03 10:54:03;;;;;;;20.43;12.60;;;;;;;5.30;97.01;101798.06;4862126;29;20471;-76
2022/11/03 10:56:31;;;;;;;18.17;11.40;;;;;;;5.32;96.17;101800.59;4869766;29;20089;-76
2022/11/03 10:58:59;;;;;;;19.83;12.03;;;;;;;5.29;96.75;101801.66;4868310;29;20026;-76
2022/11/03 11:01:24;;;;;;;20.73;11.07;;;;;;;5.23;98.05;101792.34;4884580;29;20427;-76
2022/11/03 11:03:50;;;;;;;23.33;11.77;;;;;;;5.16;97.74;101796.31;4871320;29;20259;-75
2022/11/03 11:06:25;;;;;;;20.13;10.87;;;;;;;5.21;97.73;101798.69;4847927;29;20096;-75
2022/11/03 11:08:58;;;;;;;19.63;11.57;;;;;;;5.24;98.11;101803.75;4862355;29;20026;-77
2022/11/03 11:11:24;;;;;;;26.17;12.40;;;;;;;5.09;97.89;101781.00;4861490;29;20037;-76
2022/11/03 11:14:26;;;;;;;21.13;12.03;;;;;;;5.14;98.31;101803.50;4860796;29;20049;-78
2022/11/03 11:16:57;;;;;;;20.53;12.20;;;;;;;5.08;97.97;101800.44;4861657;29;20041;-76
2022/11/03 11:19:24;;;;;;;19.00;11.67;;;;;;;5.07;97.75;101802.22;4862366;29;20274;-74
2022/11/03 11:21:59;;;;;;;19.53;10.57;;;;;;;5.12;98.37;101800.13;4861248;29;20029;-73
2022/11/03 11:24:43;;;;;;;16.80;10.20;;;;;;;5.25;98.82;101801.00;4861399;29;20056;-73
2022/11/03 11:27:36;;;;;;;17.17;12.23;;;;;;;5.28;97.84;101794.66;4863940;29;20025;-78
2022/11/03 11:30:24;;;;;;;22.80;12.03;;;;;;;5.20;97.60;101787.28;4864196;29;20274;-75
2022/11/03 11:33:00;;;;;;;18.60;10.70;;;;;;;5.22;97.99;101785.38;4859959;29;20051;-78
2022/11/03 11:35:25;;;;;;;22.83;11.77;;;;;;;5.35;97.85;101795.09;4879726;29;20320;-80
2022/11/03 11:37:52;;;;;;;20.00;10.40;;;;;;;5.31;97.05;101799.75;4880079;29;20213;-78
2022/11/03 11:40:23;;;;;;;15.10;9.50;;;;;;;5.16;96.81;101793.69;4882095;29;20185;-77
2022/11/03 11:43:01;;;;;;;12.93;7.87;;;;;;;5.06;96.75;101784.69;4880734;29;20029;-74
2022/11/03 11:46:04;;;;;;;16.52;8.48;;;;;;;5.02;97.37;101795.56;4874221;29;20040;-77
2022/11/03 11:49:15;;;;;;;12.83;9.00;;;;;;;4.98;98.22;101792.28;4869959;29;20033;-78
2022/11/03 11:51:41;;;;;;;14.53;9.00;;;;;;;4.86;97.86;101798.34;4870289;29;20037;-77
2022/11/03 11:54:12;;;;;;;15.53;8.67;;;;;;;4.87;99.32;101800.03;4870024;29;20125;-78
2022/11/03 11:56:45;;;;;;;16.43;8.80;;;;;;;4.79;99.37;101791.78;4870117;29;20123;-77
2022/11/03 11:59:23;;;;;;;22.90;11.53;;;;;;;4.86;99.93;101793.06;4868056;29;20025;-73
2022/11/03 12:01:50;;;;;;;;;;;;;;;4.80;98.96;101801.41;4869812;29;20041;-73
2022/11/03 12:04:19;;;;;;;17.57;9.80;;;;;;;4.59;100.00;101806.25;4867484;29;19911;-74